createdAt,value
2019-01-30T00:01:43.835Z,36.03
2019-01-30T00:04:25.790Z,42.87
2019-01-30T00:07:08.158Z,36.80
2019-01-30T00:09:50.734Z,32.57
2019-01-30T00:12:32.471Z,28.33
2019-01-30T00:15:14.324Z,26.50
2019-01-30T00:17:56.250Z,28.60
2019-01-30T00:20:38.554Z,26.67
2019-01-30T00:23:20.756Z,25.37
2019-01-30T00:26:02.894Z,26.00
2019-01-30T00:28:44.933Z,25.97
2019-01-30T00:31:26.889Z,27.23
2019-01-30T00:34:09.086Z,28.33
2019-01-30T00:36:51.215Z,29.07
2019-01-30T00:39:33.643Z,26.33
2019-01-30T00:42:15.985Z,27.43
2019-01-30T00:44:58.294Z,25.53
2019-01-30T00:47:40.426Z,25.27
2019-01-30T00:50:22.854Z,24.73
2019-01-30T00:53:04.830Z,25.90
2019-01-30T00:55:46.874Z,27.87
2019-01-30T00:58:28.970Z,27.50
2019-01-30T01:01:10.731Z,30.13
2019-01-30T01:03:52.793Z,28.93
2019-01-30T01:06:35.090Z,31.23
2019-01-30T01:09:16.831Z,28.13
2019-01-30T01:11:58.879Z,28.03
2019-01-30T01:14:40.679Z,25.00
2019-01-30T01:17:23.486Z,28.43
2019-01-30T01:20:06.126Z,29.17
2019-01-30T01:22:47.818Z,30.07
2019-01-30T01:25:29.766Z,29.97
2019-01-30T01:28:11.430Z,25.17
2019-01-30T01:30:53.267Z,30.33
2019-01-30T01:33:34.902Z,32.63
2019-01-30T01:36:16.970Z,30.63
2019-01-30T01:38:58.855Z,28.87
2019-01-30T01:41:40.750Z,30.77
2019-01-30T01:44:22.926Z,33.10
2019-01-30T01:47:04.725Z,31.50
2019-01-30T01:49:46.926Z,31.00
2019-01-30T01:52:28.639Z,34.43
2019-01-30T01:55:10.738Z,33.50
2019-01-30T01:57:53.241Z,34.07
2019-01-30T02:00:35.873Z,31.43
2019-01-30T02:03:17.565Z,29.30
2019-01-30T02:05:59.382Z,31.87
2019-01-30T02:08:41.085Z,29.53
2019-01-30T02:11:23.246Z,31.07
2019-01-30T02:14:05.518Z,32.17
2019-01-30T02:16:47.524Z,29.93
2019-01-30T02:19:30.214Z,30.50
2019-01-30T02:22:12.410Z,32.97
2019-01-30T02:24:55.083Z,30.60
2019-01-30T02:27:37.006Z,32.67
2019-01-30T02:30:18.784Z,29.07
2019-01-30T02:33:01.129Z,28.90
2019-01-30T02:35:43.678Z,29.43
2019-01-30T02:38:25.785Z,29.70
2019-01-30T02:41:07.775Z,29.30
2019-01-30T02:43:49.425Z,27.10
2019-01-30T02:46:31.554Z,28.87
2019-01-30T02:49:13.610Z,29.37
2019-01-30T02:51:55.154Z,31.17
2019-01-30T02:54:37.032Z,31.83
2019-01-30T02:57:18.706Z,30.00
2019-01-30T03:00:01.241Z,29.53
2019-01-30T03:02:43.419Z,29.43
2019-01-30T03:05:25.390Z,30.80
2019-01-30T03:08:07.047Z,29.30
2019-01-30T03:10:50.009Z,32.07
2019-01-30T03:13:32.034Z,34.40
2019-01-30T03:16:13.791Z,30.83
2019-01-30T03:18:55.966Z,29.73
2019-01-30T03:21:37.890Z,34.07
2019-01-30T03:24:19.709Z,30.23
2019-01-30T03:27:01.806Z,27.83
2019-01-30T03:29:43.592Z,30.53
2019-01-30T03:32:25.336Z,31.23
2019-01-30T03:35:06.939Z,28.67
2019-01-30T03:37:48.947Z,28.80
2019-01-30T03:40:30.914Z,29.37
2019-01-30T03:43:13.048Z,28.53
2019-01-30T03:45:54.674Z,28.87
2019-01-30T03:48:36.394Z,29.27
2019-01-30T03:51:18.054Z,30.20
2019-01-30T03:54:00.073Z,27.77
2019-01-30T03:56:41.991Z,30.37
2019-01-30T03:59:24.150Z,29.90
2019-01-30T04:02:06.501Z,29.30
2019-01-30T04:04:48.255Z,29.47
2019-01-30T04:07:18.642Z,28.77
2019-01-30T04:09:50.446Z,29.97
2019-01-30T04:12:34.406Z,26.17
2019-01-30T04:15:16.474Z,28.10
2019-01-30T04:17:58.358Z,28.67
2019-01-30T04:20:39.992Z,31.40
2019-01-30T04:23:22.472Z,30.97
2019-01-30T04:26:04.162Z,29.67
2019-01-30T04:28:45.990Z,32.40
2019-01-30T04:31:37.911Z,28.90
2019-01-30T04:34:11.524Z,30.20
2019-01-30T04:36:53.642Z,34.60
2019-01-30T04:39:35.354Z,32.10
2019-01-30T04:42:15.786Z,28.53
2019-01-30T04:45:05.732Z,29.40
2019-01-30T04:47:49.233Z,32.27
2019-01-30T04:50:31.158Z,31.87
2019-01-30T04:53:11.611Z,34.07
2019-01-30T04:56:00.954Z,37.00
2019-01-30T04:58:46.950Z,32.40
2019-01-30T05:01:28.851Z,31.13
2019-01-30T05:04:11.070Z,29.93
2019-01-30T05:06:52.953Z,31.20
2019-01-30T05:09:35.073Z,52.57
2019-01-30T05:12:17.627Z,38.40
2019-01-30T05:15:00.173Z,39.03
2019-01-30T05:17:42.752Z,59.77
2019-01-30T05:20:24.729Z,42.57
2019-01-30T05:23:06.907Z,62.33
2019-01-30T05:25:49.062Z,59.73
2019-01-30T05:28:30.797Z,42.20
2019-01-30T05:31:15.065Z,50.13
2019-01-30T05:33:57.052Z,45.27
2019-01-30T05:36:39.035Z,32.73
2019-01-30T05:39:20.834Z,33.63
2019-01-30T05:42:02.862Z,33.63
2019-01-30T05:44:44.626Z,33.83
2019-01-30T05:47:26.810Z,32.73
2019-01-30T05:50:08.706Z,33.80
2019-01-30T05:52:51.118Z,37.77
2019-01-30T05:55:32.904Z,34.10
2019-01-30T05:58:14.656Z,37.53
2019-01-30T06:00:55.181Z,37.23
2019-01-30T06:03:44.534Z,36.03
2019-01-30T06:06:27.982Z,37.77
2019-01-30T06:09:09.808Z,43.80
2019-01-30T06:11:52.090Z,42.33
2019-01-30T06:14:34.175Z,44.13
2019-01-30T06:17:16.256Z,40.90
2019-01-30T06:19:57.930Z,38.00
2019-01-30T06:22:39.810Z,41.50
2019-01-30T06:25:21.631Z,43.30
2019-01-30T06:28:03.439Z,41.90
2019-01-30T06:30:45.830Z,38.37
2019-01-30T06:33:28.150Z,39.87
2019-01-30T06:36:10.064Z,40.93
2019-01-30T06:38:51.843Z,41.37
2019-01-30T06:41:33.790Z,39.67
2019-01-30T06:44:14.270Z,38.53
2019-01-30T06:47:03.606Z,35.00
2019-01-30T06:49:47.622Z,36.27
2019-01-30T06:52:29.538Z,35.63
2019-01-30T06:55:11.361Z,40.57
2019-01-30T06:57:53.307Z,41.23
2019-01-30T07:00:35.005Z,36.57
2019-01-30T07:03:17.939Z,34.93
2019-01-30T07:05:59.602Z,35.40
2019-01-30T07:08:41.649Z,49.27
2019-01-30T07:11:23.638Z,45.33
2019-01-30T07:14:06.098Z,38.27
2019-01-30T07:16:48.047Z,40.90
2019-01-30T07:19:30.438Z,37.67
2019-01-30T07:22:12.502Z,34.80
2019-01-30T07:24:54.449Z,39.07
2019-01-30T07:27:36.644Z,40.53
2019-01-30T07:30:18.303Z,34.03
2019-01-30T07:33:00.736Z,35.40
2019-01-30T07:35:42.433Z,42.80
2019-01-30T07:38:24.464Z,38.67
2019-01-30T07:41:06.338Z,29.40
2019-01-30T07:43:48.767Z,46.83
2019-01-30T07:46:30.502Z,39.23
2019-01-30T07:49:12.318Z,43.97
2019-01-30T07:51:54.342Z,39.10
2019-01-30T07:54:36.791Z,39.63
2019-01-30T07:57:18.538Z,32.43
2019-01-30T08:00:00.667Z,29.83
2019-01-30T08:02:52.617Z,31.03
2019-01-30T08:05:26.927Z,31.43
2019-01-30T08:08:09.094Z,32.80
2019-01-30T08:10:50.659Z,31.67
2019-01-30T08:13:32.401Z,32.57
2019-01-30T08:16:14.160Z,42.33
2019-01-30T08:18:56.150Z,37.73
2019-01-30T08:21:38.470Z,40.00
2019-01-30T08:24:20.351Z,36.73
2019-01-30T08:27:02.694Z,41.87
2019-01-30T08:29:44.594Z,42.83
2019-01-30T08:32:27.204Z,33.00
2019-01-30T08:35:09.454Z,29.33
2019-01-30T08:37:51.910Z,23.40
2019-01-30T08:40:34.006Z,25.30
2019-01-30T08:43:15.725Z,25.00
2019-01-30T08:45:57.619Z,26.00
2019-01-30T08:48:38.105Z,24.20
2019-01-30T08:51:27.357Z,26.37
2019-01-30T08:54:11.258Z,25.67
2019-01-30T08:56:53.358Z,25.07
2019-01-30T08:59:35.714Z,25.00
2019-01-30T09:02:18.218Z,27.20
2019-01-30T09:05:00.030Z,25.70
2019-01-30T09:07:44.472Z,23.90
2019-01-30T09:10:16.671Z,27.47
2019-01-30T09:13:07.537Z,25.67
2019-01-30T09:15:51.441Z,25.20
2019-01-30T09:18:33.459Z,25.23
2019-01-30T09:21:15.815Z,21.20
2019-01-30T09:23:57.806Z,24.87
2019-01-30T09:26:39.847Z,24.20
2019-01-30T09:29:21.864Z,24.53
2019-01-30T09:32:03.649Z,23.60
2019-01-30T09:34:45.484Z,24.47
2019-01-30T09:37:27.378Z,23.57
2019-01-30T09:40:09.006Z,23.93
2019-01-30T09:42:51.457Z,23.27
2019-01-30T09:45:31.946Z,26.07
2019-01-30T09:48:21.542Z,25.77
2019-01-30T09:51:05.361Z,23.80
2019-01-30T09:53:47.138Z,24.00
2019-01-30T09:56:29.490Z,26.53
2019-01-30T09:59:11.771Z,25.20
2019-01-30T10:01:53.609Z,26.70
2019-01-30T10:04:35.710Z,27.37
2019-01-30T10:07:17.849Z,28.70
2019-01-30T10:10:00.346Z,27.87
2019-01-30T10:13:01.167Z,27.27
2019-01-30T10:15:43.187Z,23.37
2019-01-30T10:18:26.129Z,23.87
2019-01-30T10:21:08.504Z,24.13
2019-01-30T10:23:51.002Z,24.07
2019-01-30T10:26:32.994Z,27.57
2019-01-30T10:29:14.618Z,22.60
2019-01-30T10:31:56.903Z,22.83
2019-01-30T10:34:39.077Z,21.93
2019-01-30T10:37:21.194Z,22.03
2019-01-30T10:40:03.025Z,20.07
2019-01-30T10:42:45.050Z,18.33
2019-01-30T10:45:27.337Z,17.20
2019-01-30T10:48:07.886Z,18.87
2019-01-30T10:50:57.218Z,17.80
2019-01-30T10:53:40.491Z,20.67
2019-01-30T10:56:22.502Z,23.87
2019-01-30T10:59:04.301Z,23.40
2019-01-30T11:01:46.188Z,20.77
2019-01-30T11:04:28.177Z,20.60
2019-01-30T11:07:10.326Z,18.13
2019-01-30T11:09:52.673Z,20.63
2019-01-30T11:12:34.401Z,23.07
2019-01-30T11:15:16.590Z,19.67
2019-01-30T11:17:58.285Z,22.57
2019-01-30T11:20:40.895Z,17.00
2019-01-30T11:23:23.500Z,19.00
2019-01-30T11:26:05.546Z,21.37
2019-01-30T11:28:48.018Z,21.43
2019-01-30T11:31:29.933Z,21.53
2019-01-30T11:34:11.708Z,19.10
2019-01-30T11:36:53.452Z,22.90
2019-01-30T11:39:35.438Z,20.23
2019-01-30T11:42:17.166Z,22.30
2019-01-30T11:44:59.162Z,21.97
2019-01-30T11:47:40.813Z,24.03
2019-01-30T11:50:23.313Z,20.03
2019-01-30T11:53:05.550Z,21.90
2019-01-30T11:55:47.511Z,19.27
2019-01-30T11:58:29.490Z,20.43
2019-01-30T12:01:11.122Z,27.30
2019-01-30T12:03:53.218Z,21.77
2019-01-30T12:06:35.334Z,21.03
2019-01-30T12:09:17.653Z,18.67
2019-01-30T12:11:59.330Z,20.83
2019-01-30T12:14:41.397Z,19.87
2019-01-30T12:17:23.241Z,22.97
2019-01-30T12:20:05.402Z,24.10
2019-01-30T12:22:47.786Z,26.50
2019-01-30T12:25:29.869Z,24.73
2019-01-30T12:28:11.926Z,25.47
2019-01-30T12:30:54.334Z,26.17
2019-01-30T12:33:35.858Z,24.33
2019-01-30T12:36:18.446Z,22.93
2019-01-30T12:39:00.222Z,23.53
2019-01-30T12:41:42.421Z,25.63
2019-01-30T12:44:24.222Z,23.53
2019-01-30T12:47:06.230Z,22.30
2019-01-30T12:49:48.187Z,25.87
2019-01-30T12:52:30.280Z,22.93
2019-01-30T12:55:12.182Z,22.53
2019-01-30T12:57:54.321Z,22.57
2019-01-30T13:00:36.094Z,24.00
2019-01-30T13:03:18.249Z,23.03
2019-01-30T13:06:00.482Z,23.73
2019-01-30T13:08:42.731Z,24.10
2019-01-30T13:11:23.201Z,21.10
2019-01-30T13:14:12.544Z,24.73
2019-01-30T13:16:56.378Z,23.10
2019-01-30T13:19:38.481Z,24.87
2019-01-30T13:22:20.586Z,21.77
2019-01-30T13:25:02.672Z,21.43
2019-01-30T13:27:44.477Z,21.77
2019-01-30T13:30:26.190Z,24.73
2019-01-30T13:33:07.817Z,23.00
2019-01-30T13:35:49.858Z,22.00
2019-01-30T13:38:32.423Z,23.53
2019-01-30T13:41:14.238Z,21.13
2019-01-30T13:43:56.002Z,23.33
2019-01-30T13:46:38.665Z,21.10
2019-01-30T13:49:20.769Z,18.43
2019-01-30T13:52:02.708Z,19.87
2019-01-30T13:54:44.871Z,20.90
2019-01-30T13:57:26.956Z,20.47
2019-01-30T14:00:08.636Z,20.53
2019-01-30T14:02:50.840Z,19.63
2019-01-30T14:05:32.709Z,19.13
2019-01-30T14:08:15.044Z,21.27
2019-01-30T14:10:56.806Z,21.67
2019-01-30T14:13:38.738Z,21.53
2019-01-30T14:16:21.299Z,22.40
2019-01-30T14:19:02.992Z,18.53
2019-01-30T14:21:44.917Z,18.60
2019-01-30T14:24:26.881Z,18.97
2019-01-30T14:27:09.001Z,19.33
2019-01-30T14:29:58.116Z,19.03
2019-01-30T14:32:35.046Z,19.50
2019-01-30T14:35:16.839Z,24.77
2019-01-30T14:37:59.197Z,18.80
2019-01-30T14:40:42.435Z,28.30
2019-01-30T14:43:24.250Z,18.63
2019-01-30T14:46:06.214Z,17.27
2019-01-30T14:48:48.270Z,17.17
2019-01-30T14:51:30.042Z,27.47
2019-01-30T14:54:12.078Z,29.27
2019-01-30T14:56:53.773Z,20.00
2019-01-30T14:59:36.159Z,23.20
2019-01-30T15:02:18.249Z,22.33
2019-01-30T15:05:00.304Z,22.67
2019-01-30T15:07:42.226Z,21.10
2019-01-30T15:10:24.379Z,20.43
2019-01-30T15:13:06.112Z,18.17
2019-01-30T15:15:48.298Z,18.83
2019-01-30T15:18:30.203Z,19.57
2019-01-30T15:21:12.622Z,59.53
2019-01-30T15:23:54.626Z,41.90
2019-01-30T15:26:36.889Z,32.83
2019-01-30T15:29:18.783Z,28.90
2019-01-30T15:32:00.658Z,64.60
2019-01-30T15:34:42.235Z,59.70
2019-01-30T15:37:24.414Z,71.57
2019-01-30T15:40:06.526Z,30.80
2019-01-30T15:42:49.694Z,23.57
2019-01-30T15:45:31.838Z,72.07
2019-01-30T15:48:14.185Z,42.03
2019-01-30T15:50:56.067Z,31.07
2019-01-30T15:53:38.189Z,26.23
2019-01-30T15:56:19.845Z,34.23
2019-01-30T15:59:01.955Z,28.57
2019-01-30T16:01:43.932Z,25.57
2019-01-30T16:04:25.611Z,82.27
2019-01-30T16:07:08.142Z,41.13
2019-01-30T16:09:50.042Z,28.50
2019-01-30T16:12:31.674Z,23.63
2019-01-30T16:15:13.546Z,21.03
2019-01-30T16:17:55.670Z,24.77
2019-01-30T16:20:37.422Z,25.83
2019-01-30T16:23:19.207Z,26.60
2019-01-30T16:26:01.282Z,27.40
2019-01-30T16:28:43.481Z,38.77
2019-01-30T16:31:26.971Z,52.00
2019-01-30T16:34:08.893Z,45.93
2019-01-30T16:36:51.222Z,40.70
2019-01-30T16:39:32.859Z,35.73
2019-01-30T16:42:15.326Z,30.13
2019-01-30T16:44:55.698Z,31.97
2019-01-30T16:47:38.168Z,39.30
2019-01-30T16:50:20.701Z,32.90
2019-01-30T16:53:02.639Z,32.47
2019-01-30T16:55:45.016Z,31.93
2019-01-30T16:58:27.422Z,33.30
2019-01-30T17:01:09.307Z,37.13
2019-01-30T17:03:51.554Z,29.13
2019-01-30T17:06:33.310Z,31.00
2019-01-30T17:09:15.275Z,49.93
2019-01-30T17:11:57.901Z,45.47
2019-01-30T17:14:40.455Z,44.23
2019-01-30T17:17:22.346Z,45.03
2019-01-30T17:20:04.126Z,39.80
2019-01-30T17:22:45.870Z,47.17
2019-01-30T17:25:27.847Z,32.87
2019-01-30T17:28:09.719Z,34.77
2019-01-30T17:30:52.303Z,42.93
2019-01-30T17:33:34.874Z,53.57
2019-01-30T17:36:18.513Z,42.77
2019-01-30T17:39:00.236Z,36.50
2019-01-30T17:41:42.521Z,31.03
2019-01-30T17:44:24.131Z,41.37
2019-01-30T17:47:06.744Z,47.87
2019-01-30T17:49:49.315Z,46.47
2019-01-30T17:52:31.114Z,43.57
2019-01-30T17:55:13.276Z,43.27
2019-01-30T17:57:55.138Z,38.27
2019-01-30T18:03:42.030Z,43.20
2019-01-30T18:06:29.998Z,45.40
2019-01-30T18:09:08.066Z,31.60
2019-01-30T18:11:50.618Z,30.30
2019-01-30T18:14:33.358Z,30.90
2019-01-30T18:17:15.062Z,30.70
2019-01-30T18:19:57.084Z,35.50
2019-01-30T18:22:38.886Z,30.33
2019-01-30T18:25:21.019Z,43.93
2019-01-30T18:28:03.283Z,45.93
2019-01-30T18:30:46.178Z,42.77
2019-01-30T18:33:28.748Z,30.33
2019-01-30T18:36:10.778Z,26.93
2019-01-30T18:38:52.690Z,26.83
2019-01-30T18:41:34.744Z,25.47
2019-01-30T18:44:16.830Z,24.20
2019-01-30T18:46:58.539Z,26.30
2019-01-30T18:49:42.002Z,28.57
2019-01-30T18:52:24.454Z,26.23
2019-01-30T18:55:06.455Z,32.17
2019-01-30T18:57:48.417Z,31.03
2019-01-30T19:00:30.635Z,29.20
2019-01-30T19:03:12.435Z,39.03
2019-01-30T19:05:55.082Z,36.07
2019-01-30T19:08:37.038Z,35.17
2019-01-30T19:11:19.286Z,42.97
2019-01-30T19:14:01.339Z,41.03
2019-01-30T19:16:43.093Z,42.70
2019-01-30T19:19:24.822Z,38.33
2019-01-30T19:22:06.750Z,43.37
2019-01-30T19:24:48.543Z,38.20
2019-01-30T19:27:30.126Z,42.43
2019-01-30T19:30:12.544Z,45.83
2019-01-30T19:32:54.586Z,42.20
2019-01-30T19:35:36.330Z,40.10
2019-01-30T19:38:18.440Z,45.10
2019-01-30T19:41:00.958Z,49.03
2019-01-30T19:43:42.674Z,45.83
2019-01-30T19:46:24.511Z,46.37
2019-01-30T19:49:06.866Z,40.63
2019-01-30T19:51:48.934Z,38.13
2019-01-30T19:54:31.609Z,33.97
2019-01-30T19:57:13.967Z,35.03
2019-01-30T19:59:55.966Z,35.27
2019-01-30T20:02:37.714Z,41.30
2019-01-30T20:05:21.210Z,40.07
2019-01-30T20:08:03.522Z,40.20
2019-01-30T20:10:46.005Z,41.27
2019-01-30T20:13:28.437Z,41.13
2019-01-30T20:16:10.203Z,40.93
2019-01-30T20:18:51.978Z,42.93
2019-01-30T20:21:34.558Z,49.57
2019-01-30T20:24:16.755Z,45.23
2019-01-30T20:26:58.961Z,51.60
2019-01-30T20:29:41.219Z,50.70
2019-01-30T20:32:23.458Z,50.23
2019-01-30T20:35:05.331Z,51.03
2019-01-30T20:37:48.357Z,46.83
2019-01-30T20:40:30.242Z,49.73
2019-01-30T20:43:12.246Z,52.10
2019-01-30T20:45:54.024Z,56.57
2019-01-30T20:48:45.640Z,48.43
2019-01-30T20:51:19.966Z,49.70
2019-01-30T20:54:01.746Z,51.63
2019-01-30T20:56:43.372Z,55.07
2019-01-30T20:59:25.366Z,54.83
2019-01-30T21:02:07.886Z,85.67
2019-01-30T21:04:49.702Z,106.87
2019-01-30T21:07:37.352Z,77.70
2019-01-30T21:10:14.686Z,59.03
2019-01-30T21:12:56.489Z,51.23
2019-01-30T21:15:38.745Z,48.47
2019-01-30T21:18:20.663Z,51.40
2019-01-30T21:21:03.040Z,50.77
2019-01-30T21:23:45.370Z,48.70
2019-01-30T21:26:27.206Z,51.20
2019-01-30T21:29:09.594Z,53.63
2019-01-30T21:31:51.775Z,53.43
2019-01-30T21:34:33.670Z,65.10
2019-01-30T21:37:16.090Z,63.70
2019-01-30T21:39:57.704Z,60.93
2019-01-30T21:42:28.089Z,60.93
2019-01-30T21:45:19.602Z,57.33
2019-01-30T21:48:02.749Z,53.77
2019-01-30T21:50:44.482Z,50.93
2019-01-30T21:53:26.523Z,49.20
2019-01-30T21:56:09.961Z,90.03
2019-01-30T21:58:52.499Z,85.17
2019-01-30T22:01:34.499Z,66.57
2019-01-30T22:04:17.686Z,50.90
2019-01-30T22:06:59.943Z,47.00
2019-01-30T22:09:40.448Z,44.93
2019-01-30T22:12:31.259Z,48.73
2019-01-30T22:15:14.695Z,46.27
2019-01-30T22:17:56.996Z,66.07
2019-01-30T22:20:39.107Z,63.50
2019-01-30T22:23:21.071Z,64.27
2019-01-30T22:26:03.007Z,58.97
2019-01-30T22:28:45.403Z,53.13
2019-01-30T22:31:27.544Z,54.63
2019-01-30T22:34:09.659Z,42.73
2019-01-30T22:36:51.797Z,60.63
2019-01-30T22:39:33.979Z,56.47
2019-01-30T22:42:15.637Z,78.20
2019-01-30T22:44:57.374Z,171.97
2019-01-30T22:47:39.781Z,105.03
2019-01-30T22:50:21.524Z,125.80
2019-01-30T22:53:03.750Z,153.03
2019-01-30T22:55:45.377Z,104.53
2019-01-30T22:58:27.042Z,46.93
2019-01-30T23:01:13.426Z,43.30
2019-01-30T23:03:54.990Z,38.17
2019-01-30T23:06:37.027Z,39.57
2019-01-30T23:09:19.101Z,39.60
2019-01-30T23:12:01.406Z,36.53
2019-01-30T23:14:43.190Z,47.60
2019-01-30T23:17:51.707Z,42.40
2019-01-30T23:21:00.194Z,46.10
2019-01-30T23:23:44.059Z,44.20
2019-01-30T23:26:45.349Z,45.70
2019-01-30T23:29:55.303Z,52.40
2019-01-30T23:32:39.108Z,47.67
2019-01-30T23:35:20.806Z,58.50
2019-01-30T23:38:02.766Z,65.00
2019-01-30T23:40:44.610Z,59.23
2019-01-30T23:43:26.474Z,54.10
2019-01-30T23:46:08.541Z,47.77
2019-01-30T23:48:50.794Z,48.87
2019-01-30T23:51:33.002Z,47.87
2019-01-30T23:54:14.683Z,47.23
2019-01-30T23:56:56.662Z,45.90
2019-01-30T23:59:38.960Z,53.83
